Aviation Digital Data Service (ADDS)

Output produced by METARs form (1636 UTC 16 June 2019)
found at http://www.aviationweather.gov/metar/data/
 
VVDN 161600Z 22003KT 9999 FEW013 SCT060 28/26 Q1006 NOSIG
TAF VVDN 161100Z 1612/1712 20005KT 9999 FEW015 SCT050 
     PROB30 
     TEMPO 1612/1614 4500 TSRA SCT015 FEW017CB BKN050 
     BECMG 1704/1705 10010KT 
     TEMPO 1708/1712 4000 TSRA SCT013 FEW017CB BKN050
       
VVNB 161600Z 08008KT CAVOK 29/24 Q1002 NOSIG
TAF VVNB 161100Z 1612/1712 12008KT 8000 FEW025 
     TEMPO 1612/1614 5000 TSRA SCT015 FEW027CB
       
VVTS 161600Z 23005KT 9999 FEW017 BKN050 26/25 Q1008 NOSIG
TAF VVTS 161100Z 1612/1718 25008KT 9999 SCT015 BKN040 
     TEMPO 1612/1614 5000 TSRA BKN015 FEW017CB 
     TEMPO 1705/1711 27015G28KT 3000 TSRA BKN013 SCT015CB